createdAt,value
2022-10-02T00:02:15.332Z,88.10
2022-10-02T00:04:46.417Z,88.37
2022-10-02T00:07:13.079Z,88.63
2022-10-02T00:09:49.413Z,88.70
2022-10-02T00:12:18.410Z,88.86
2022-10-02T00:14:45.959Z,89.04
2022-10-02T00:17:24.231Z,89.02
2022-10-02T00:19:56.988Z,88.92
2022-10-02T00:22:29.563Z,88.86
2022-10-02T00:25:00.580Z,88.88
2022-10-02T00:27:57.429Z,89.02
2022-10-02T00:30:24.112Z,89.65
2022-10-02T00:33:04.032Z,89.72
2022-10-02T00:35:49.870Z,89.84
2022-10-02T00:38:53.646Z,89.97
2022-10-02T00:41:43.898Z,90.16
2022-10-02T00:44:15.058Z,90.35
2022-10-02T00:46:46.281Z,90.69
2022-10-02T00:49:35.248Z,90.69
2022-10-02T00:52:09.666Z,90.40
2022-10-02T00:55:08.745Z,90.57
2022-10-02T00:57:48.360Z,90.32
2022-10-02T01:00:16.983Z,90.04
2022-10-02T01:02:44.845Z,89.77
2022-10-02T01:05:11.508Z,89.93
2022-10-02T01:07:40.046Z,90.20
2022-10-02T01:10:07.225Z,90.32
2022-10-02T01:12:34.809Z,90.31
2022-10-02T01:15:02.093Z,90.15
2022-10-02T01:17:31.306Z,89.57
2022-10-02T01:19:59.300Z,89.18
2022-10-02T01:22:36.333Z,88.97
2022-10-02T01:25:04.428Z,88.99
2022-10-02T01:27:31.187Z,88.83
2022-10-02T01:30:01.076Z,88.68
2022-10-02T01:32:29.604Z,88.43
2022-10-02T01:34:56.602Z,88.76
2022-10-02T01:37:24.693Z,89.32
2022-10-02T01:39:51.372Z,89.85
2022-10-02T01:42:18.089Z,90.69
2022-10-02T01:44:44.753Z,91.32
2022-10-02T01:47:19.882Z,91.73
2022-10-02T01:50:08.201Z,91.79
2022-10-02T01:52:48.374Z,91.92
2022-10-02T01:55:26.778Z,92.06
2022-10-02T01:58:08.008Z,92.06
2022-10-02T02:00:51.761Z,92.35
2022-10-02T02:03:30.229Z,92.49
2022-10-02T02:06:03.182Z,92.59
2022-10-02T02:08:45.702Z,92.70
2022-10-02T02:11:17.044Z,93.00
2022-10-02T02:13:54.173Z,93.02
2022-10-02T02:16:33.376Z,93.03
2022-10-02T02:19:12.358Z,92.92
2022-10-02T02:21:41.364Z,93.04
2022-10-02T02:24:11.525Z,93.03
2022-10-02T02:26:38.468Z,93.02
2022-10-02T02:29:06.990Z,92.96
2022-10-02T02:31:37.323Z,93.07
2022-10-02T02:34:07.762Z,93.13
2022-10-02T02:36:39.481Z,93.43
2022-10-02T02:39:10.642Z,93.83
2022-10-02T02:41:43.703Z,94.14
2022-10-02T02:44:27.809Z,94.62
2022-10-02T02:47:15.911Z,94.96
2022-10-02T02:49:52.007Z,95.33
2022-10-02T02:52:21.585Z,95.69
2022-10-02T02:54:55.097Z,95.73
2022-10-02T02:57:28.700Z,96.00
2022-10-02T02:59:55.863Z,96.08
2022-10-02T03:02:22.594Z,96.12
2022-10-02T03:04:49.301Z,96.07
2022-10-02T03:07:16.030Z,96.05
2022-10-02T03:09:46.248Z,96.01
2022-10-02T03:12:19.917Z,96.06
2022-10-02T03:14:52.907Z,95.95
2022-10-02T03:17:22.770Z,95.78
2022-10-02T03:20:41.712Z,95.45
2022-10-02T03:23:23.779Z,95.27
2022-10-02T03:26:13.372Z,95.46
2022-10-02T03:28:55.456Z,95.58
2022-10-02T03:31:23.358Z,95.90
2022-10-02T03:33:50.244Z,96.16
2022-10-02T03:36:21.285Z,96.03
2022-10-02T03:39:00.796Z,95.76
2022-10-02T03:41:33.334Z,95.57
2022-10-02T03:44:00.294Z,95.67
2022-10-02T03:46:27.006Z,96.07
2022-10-02T03:48:56.471Z,96.40
2022-10-02T03:51:23.987Z,96.37
2022-10-02T03:53:50.634Z,96.41
2022-10-02T03:56:34.236Z,96.36
2022-10-02T03:59:01.556Z,96.47
2022-10-02T04:01:32.041Z,96.46
2022-10-02T04:04:18.641Z,96.38
2022-10-02T04:06:52.248Z,96.64
2022-10-02T04:09:23.547Z,96.51
2022-10-02T04:11:56.817Z,96.53
2022-10-02T04:14:43.542Z,96.53
2022-10-02T04:17:14.015Z,96.52
2022-10-02T04:19:46.366Z,96.50
2022-10-02T04:22:27.399Z,96.36
2022-10-02T04:25:05.581Z,96.33
2022-10-02T04:27:38.775Z,96.09
2022-10-02T04:30:10.235Z,96.04
2022-10-02T04:32:37.017Z,96.12
2022-10-02T04:35:17.083Z,96.07
2022-10-02T04:37:53.592Z,95.64
2022-10-02T04:40:26.260Z,95.30
2022-10-02T04:43:15.077Z,95.07
2022-10-02T04:46:04.088Z,95.02
2022-10-02T04:48:44.668Z,95.03
2022-10-02T04:51:20.446Z,95.09
2022-10-02T04:53:58.848Z,95.20
2022-10-02T04:56:37.849Z,95.29
2022-10-02T04:59:29.264Z,95.62
2022-10-02T05:02:02.449Z,95.69
2022-10-02T05:04:36.173Z,95.52
2022-10-02T05:07:16.196Z,95.59
2022-10-02T05:09:50.245Z,95.71
2022-10-02T05:12:24.408Z,96.06
2022-10-02T05:15:28.999Z,96.28
2022-10-02T05:18:24.944Z,96.58
2022-10-02T05:21:12.655Z,96.93
2022-10-02T05:23:57.602Z,96.97
2022-10-02T05:26:49.343Z,96.94
2022-10-02T05:29:25.065Z,96.44
2022-10-02T05:32:04.426Z,95.98
2022-10-02T05:34:38.161Z,95.95
2022-10-02T05:37:23.568Z,96.09
2022-10-02T05:40:10.568Z,95.89
2022-10-02T05:42:43.141Z,95.78
2022-10-02T05:45:27.709Z,96.08
2022-10-02T05:47:59.163Z,95.99
2022-10-02T05:50:28.592Z,95.84
2022-10-02T05:53:03.589Z,95.55
2022-10-02T05:55:48.316Z,95.53
2022-10-02T05:58:27.149Z,95.47
2022-10-02T06:00:59.225Z,95.24
2022-10-02T06:03:35.207Z,95.40
2022-10-02T06:06:34.937Z,95.18
2022-10-02T06:09:03.785Z,94.87
2022-10-02T06:11:33.304Z,94.45
2022-10-02T06:14:07.308Z,94.09
2022-10-02T06:16:41.465Z,93.74
2022-10-02T06:19:12.801Z,93.55
2022-10-02T06:21:46.813Z,93.67
2022-10-02T06:24:18.716Z,93.48
2022-10-02T06:27:04.661Z,93.43
2022-10-02T06:29:41.521Z,93.44
2022-10-02T06:32:25.035Z,93.42
2022-10-02T06:34:51.717Z,93.34
2022-10-02T06:37:30.487Z,93.26
2022-10-02T06:40:45.837Z,93.12
2022-10-02T06:43:45.078Z,93.24
2022-10-02T06:46:34.262Z,93.37
2022-10-02T06:49:04.889Z,93.41
2022-10-02T06:51:35.168Z,93.27
2022-10-02T06:54:17.067Z,93.14
2022-10-02T06:56:59.237Z,92.71
2022-10-02T06:59:41.107Z,92.84
2022-10-02T07:02:32.699Z,93.25
2022-10-02T07:05:26.396Z,93.43
2022-10-02T07:08:12.120Z,93.72
2022-10-02T07:10:57.343Z,93.56
2022-10-02T07:13:42.543Z,93.37
2022-10-02T07:16:15.991Z,93.35
2022-10-02T07:18:49.172Z,93.28
2022-10-02T07:21:30.455Z,93.34
2022-10-02T07:24:02.760Z,93.40
2022-10-02T07:26:49.961Z,93.56
2022-10-02T07:29:19.289Z,93.41
2022-10-02T07:32:05.667Z,93.14
2022-10-02T07:34:44.592Z,93.00
2022-10-02T07:37:36.269Z,92.93
2022-10-02T07:40:21.800Z,92.57
2022-10-02T07:43:24.905Z,92.39
2022-10-02T07:45:58.327Z,92.70
2022-10-02T07:48:45.201Z,92.85
2022-10-02T07:51:39.797Z,92.97
2022-10-02T07:54:38.572Z,92.71
2022-10-02T07:57:13.208Z,92.34
2022-10-02T07:59:40.090Z,92.53
2022-10-02T08:02:08.404Z,92.70
2022-10-02T08:04:37.528Z,92.81
2022-10-02T08:07:04.321Z,92.93
2022-10-02T08:09:39.437Z,92.93
2022-10-02T08:12:24.154Z,92.95
2022-10-02T08:14:50.845Z,93.06
2022-10-02T08:17:23.963Z,93.32
2022-10-02T08:19:51.083Z,93.55
2022-10-02T08:22:30.812Z,93.77
2022-10-02T08:24:59.052Z,94.26
2022-10-02T08:27:32.906Z,94.51
2022-10-02T08:30:04.336Z,94.95
2022-10-02T08:32:34.952Z,95.03
2022-10-02T08:35:05.642Z,94.88
2022-10-02T08:37:42.626Z,94.85
2022-10-02T08:40:24.566Z,94.75
2022-10-02T08:42:57.400Z,93.89
2022-10-02T08:45:42.606Z,93.28
2022-10-02T08:48:34.249Z,92.35
2022-10-02T08:51:25.744Z,91.97
2022-10-02T08:54:11.433Z,91.61
2022-10-02T08:57:03.132Z,91.35
2022-10-02T09:00:21.072Z,91.72
2022-10-02T09:03:25.890Z,91.93
2022-10-02T09:06:23.725Z,91.89
2022-10-02T09:09:10.284Z,92.05
2022-10-02T09:12:00.382Z,92.13
2022-10-02T09:14:45.880Z,91.63
2022-10-02T09:17:22.368Z,91.68
2022-10-02T09:20:06.298Z,91.74
2022-10-02T09:23:10.336Z,91.76
2022-10-02T09:25:38.451Z,92.06
2022-10-02T09:28:27.126Z,91.95
2022-10-02T09:31:23.424Z,91.54
2022-10-02T09:34:17.808Z,91.30
2022-10-02T09:36:53.637Z,91.34
2022-10-02T09:39:57.967Z,91.08
2022-10-02T09:42:52.693Z,91.29
2022-10-02T09:45:43.974Z,91.12
2022-10-02T09:48:24.934Z,91.43
2022-10-02T09:51:08.229Z,91.14
2022-10-02T09:53:50.844Z,90.67
2022-10-02T09:56:39.709Z,90.17
2022-10-02T09:59:38.851Z,89.68
2022-10-02T10:02:15.307Z,89.13
2022-10-02T10:05:05.571Z,88.55
2022-10-02T10:07:57.856Z,88.30
2022-10-02T10:11:00.629Z,87.95
2022-10-02T10:13:33.425Z,88.14
2022-10-02T10:16:29.599Z,88.23
2022-10-02T10:19:15.385Z,88.58
2022-10-02T10:22:19.675Z,88.67
2022-10-02T10:25:10.849Z,87.91
2022-10-02T10:28:00.854Z,86.64
2022-10-02T10:30:44.053Z,85.83
2022-10-02T10:33:24.525Z,85.21
2022-10-02T10:36:37.449Z,85.04
2022-10-02T10:39:29.346Z,84.69
2022-10-02T10:42:24.290Z,84.55
2022-10-02T10:45:12.871Z,84.91
2022-10-02T10:47:43.759Z,84.76
2022-10-02T10:53:24.398Z,84.94
2022-10-02T10:56:09.867Z,84.81
2022-10-02T10:59:13.885Z,84.53
2022-10-02T11:01:45.416Z,83.88
2022-10-02T11:04:25.209Z,83.67
2022-10-02T11:06:52.226Z,83.19
2022-10-02T11:10:11.168Z,83.00
2022-10-02T11:12:55.298Z,82.79
2022-10-02T11:15:42.656Z,82.48
2022-10-02T11:18:21.618Z,82.25
2022-10-02T11:20:54.505Z,81.95
2022-10-02T11:23:22.053Z,81.84
2022-10-02T11:25:52.813Z,82.02
2022-10-02T11:28:43.952Z,82.22
2022-10-02T11:31:30.727Z,81.78
2022-10-02T11:34:35.345Z,81.77
2022-10-02T11:37:37.861Z,81.80
2022-10-02T11:40:14.384Z,81.57
2022-10-02T11:42:42.104Z,81.37
2022-10-02T11:45:48.084Z,81.09
2022-10-02T11:48:52.096Z,81.13
2022-10-02T11:51:56.739Z,80.99
2022-10-02T11:54:40.213Z,81.49
2022-10-02T11:57:33.182Z,81.14
2022-10-02T12:00:16.060Z,80.14
2022-10-02T12:02:49.051Z,79.72
2022-10-02T12:05:37.838Z,79.54
2022-10-02T12:08:04.544Z,79.59
2022-10-02T12:10:39.459Z,79.51
2022-10-02T12:13:35.694Z,79.40
2022-10-02T12:16:27.546Z,79.17
2022-10-02T12:19:36.546Z,78.57
2022-10-02T12:22:37.435Z,78.16
2022-10-02T12:25:46.371Z,78.00
2022-10-02T12:28:26.192Z,77.59
2022-10-02T12:31:15.512Z,77.40
2022-10-02T12:34:27.187Z,77.05
2022-10-02T12:37:02.340Z,76.86
2022-10-02T12:39:48.162Z,76.45
2022-10-02T12:42:32.036Z,75.78
2022-10-02T12:45:17.273Z,74.94
2022-10-02T12:47:48.065Z,74.77
2022-10-02T12:50:45.739Z,74.81
2022-10-02T12:53:50.005Z,74.52
2022-10-02T12:56:23.003Z,74.08
2022-10-02T12:59:03.427Z,73.89
2022-10-02T13:01:52.025Z,74.01
2022-10-02T13:04:38.115Z,73.92
2022-10-02T13:07:32.771Z,73.76
2022-10-02T13:10:10.617Z,73.94
2022-10-02T13:12:51.526Z,73.84
2022-10-02T13:15:39.173Z,73.69
2022-10-02T13:18:13.465Z,73.60
2022-10-02T13:20:48.185Z,73.50
2022-10-02T13:23:41.690Z,73.56
2022-10-02T13:26:24.230Z,73.59
2022-10-02T13:28:51.179Z,73.46
2022-10-02T13:31:45.627Z,73.13
2022-10-02T13:34:38.659Z,72.92
2022-10-02T13:37:38.670Z,72.73
2022-10-02T13:40:17.841Z,72.65
2022-10-02T13:42:58.063Z,72.41
2022-10-02T13:45:29.574Z,72.56
2022-10-02T13:48:10.459Z,72.50
2022-10-02T13:50:52.556Z,72.66
2022-10-02T13:53:41.194Z,72.59
2022-10-02T13:56:32.940Z,72.54
2022-10-02T13:59:31.880Z,72.41
2022-10-02T14:02:10.897Z,72.23
2022-10-02T14:04:41.758Z,72.12
2022-10-02T14:07:14.529Z,71.94
2022-10-02T14:09:41.312Z,71.60
2022-10-02T14:12:27.815Z,72.08
2022-10-02T14:15:00.496Z,71.93
2022-10-02T14:17:40.479Z,71.58
2022-10-02T14:20:38.135Z,71.66
2022-10-02T14:23:44.303Z,71.31
2022-10-02T14:26:20.318Z,71.38
2022-10-02T14:28:47.141Z,71.54
2022-10-02T14:31:23.433Z,71.37
2022-10-02T14:34:22.409Z,71.39
2022-10-02T14:37:17.440Z,71.53
2022-10-02T14:39:45.782Z,72.11
2022-10-02T14:42:15.754Z,73.28
2022-10-02T14:44:51.639Z,73.97
2022-10-02T14:47:43.751Z,75.05
2022-10-02T14:50:28.949Z,76.38
2022-10-02T14:53:18.928Z,77.29
2022-10-02T14:56:01.060Z,78.09
2022-10-02T14:58:29.066Z,78.51
2022-10-02T15:01:24.537Z,79.39
2022-10-02T15:04:25.487Z,80.19
2022-10-02T15:07:12.497Z,80.83
2022-10-02T15:09:49.465Z,80.91
2022-10-02T15:12:19.539Z,81.23
2022-10-02T15:15:05.118Z,81.45
2022-10-02T15:18:00.485Z,81.57
2022-10-02T15:20:37.605Z,81.55
2022-10-02T15:23:07.501Z,81.94
2022-10-02T15:25:50.484Z,82.20
2022-10-02T15:28:37.673Z,82.15
2022-10-02T15:31:23.377Z,82.42
2022-10-02T15:34:08.747Z,82.66
2022-10-02T15:37:00.848Z,82.77
2022-10-02T15:39:33.544Z,82.50
2022-10-02T15:42:04.374Z,82.37
2022-10-02T15:44:46.871Z,82.42
2022-10-02T15:47:27.443Z,82.03
2022-10-02T15:50:33.041Z,82.20
2022-10-02T15:53:36.684Z,82.07
2022-10-02T15:56:29.772Z,81.78
2022-10-02T15:59:14.831Z,81.68
2022-10-02T16:01:45.117Z,81.53
2022-10-02T16:04:41.308Z,81.30
2022-10-02T16:07:45.824Z,81.46
2022-10-02T16:10:26.143Z,81.21
2022-10-02T16:13:01.520Z,80.91
2022-10-02T16:15:49.848Z,80.01
2022-10-02T16:18:23.753Z,79.55
2022-10-02T16:21:09.640Z,79.04
2022-10-02T16:23:44.525Z,78.58
2022-10-02T16:26:21.265Z,78.41
2022-10-02T16:29:00.764Z,78.24
2022-10-02T16:31:51.913Z,78.06
2022-10-02T16:34:56.724Z,77.98
2022-10-02T16:37:25.255Z,78.38
2022-10-02T16:40:03.235Z,78.67
2022-10-02T16:43:07.252Z,78.53
2022-10-02T16:46:09.700Z,78.50
2022-10-02T16:48:43.311Z,78.34
2022-10-02T16:51:31.351Z,78.44
2022-10-02T16:54:04.325Z,78.04
2022-10-02T16:56:33.420Z,77.49
2022-10-02T16:59:05.953Z,77.17
2022-10-02T17:01:34.983Z,77.20
2022-10-02T17:04:13.509Z,77.03
2022-10-02T17:06:44.098Z,76.87
2022-10-02T17:09:14.774Z,76.85
2022-10-02T17:11:53.441Z,76.75
2022-10-02T17:14:44.944Z,76.72
2022-10-02T17:17:23.165Z,76.61
2022-10-02T17:19:54.555Z,76.77
2022-10-02T17:22:39.328Z,76.88
2022-10-02T17:25:32.865Z,77.02
2022-10-02T17:28:09.849Z,77.26
2022-10-02T17:31:01.746Z,77.33
2022-10-02T17:33:32.430Z,77.56
2022-10-02T17:36:05.244Z,77.86
2022-10-02T17:38:40.473Z,78.33
2022-10-02T17:41:18.440Z,78.56
2022-10-02T17:44:09.499Z,79.09
2022-10-02T17:47:04.391Z,79.48
2022-10-02T17:50:19.540Z,79.96
2022-10-02T17:53:26.296Z,79.81
2022-10-02T17:56:30.732Z,79.95
2022-10-02T17:59:34.676Z,79.73
2022-10-02T18:02:18.832Z,79.87
2022-10-02T18:05:13.563Z,80.00
2022-10-02T18:08:21.439Z,80.19
2022-10-02T18:11:07.221Z,80.41
2022-10-02T18:13:40.089Z,80.75
2022-10-02T18:16:25.128Z,80.98
2022-10-02T18:19:00.838Z,80.92
2022-10-02T18:21:39.362Z,81.21
2022-10-02T18:24:14.940Z,81.47
2022-10-02T18:26:50.616Z,81.47
2022-10-02T18:29:21.189Z,81.63
2022-10-02T18:32:00.550Z,81.88
2022-10-02T18:34:31.197Z,82.05
2022-10-02T18:37:10.399Z,82.33
2022-10-02T18:40:07.382Z,82.43
2022-10-02T18:42:41.008Z,82.57
2022-10-02T18:45:27.901Z,82.45
2022-10-02T18:48:11.036Z,82.92
2022-10-02T18:51:03.418Z,83.01
2022-10-02T18:53:55.216Z,83.16
2022-10-02T18:56:59.123Z,83.17
2022-10-02T18:59:49.142Z,83.16
2022-10-02T19:02:41.116Z,83.29
2022-10-02T19:05:22.657Z,83.51
2022-10-02T19:07:52.270Z,83.53
2022-10-02T19:10:31.345Z,83.65
2022-10-02T19:13:17.751Z,83.71
2022-10-02T19:15:47.669Z,84.15
2022-10-02T19:18:29.080Z,84.22
2022-10-02T19:21:03.224Z,84.33
2022-10-02T19:23:40.267Z,84.31
2022-10-02T19:26:17.251Z,84.27
2022-10-02T19:28:46.337Z,84.15
2022-10-02T19:31:13.472Z,84.11
2022-10-02T19:33:51.232Z,84.10
2022-10-02T19:36:22.662Z,84.22
2022-10-02T19:39:03.809Z,84.32
2022-10-02T19:41:35.981Z,84.52
2022-10-02T19:44:07.030Z,84.40
2022-10-02T19:46:42.321Z,84.05
2022-10-02T19:49:17.306Z,83.97
2022-10-02T19:51:45.559Z,84.16
2022-10-02T19:54:18.302Z,84.02
2022-10-02T19:56:45.771Z,84.07
2022-10-02T19:59:34.377Z,83.96
2022-10-02T20:02:04.193Z,84.14
2022-10-02T20:04:32.007Z,84.35
2022-10-02T20:06:59.974Z,84.39
2022-10-02T20:09:31.675Z,84.66
2022-10-02T20:12:01.343Z,84.80
2022-10-02T20:14:58.371Z,84.87
2022-10-02T20:17:25.098Z,85.06
2022-10-02T20:19:54.039Z,85.11
2022-10-02T20:22:30.045Z,85.20
2022-10-02T20:25:07.566Z,85.33
2022-10-02T20:27:54.813Z,85.46
2022-10-02T20:30:22.715Z,85.72
2022-10-02T20:32:55.878Z,85.73
2022-10-02T20:35:35.044Z,85.61
2022-10-02T20:38:05.049Z,85.58
2022-10-02T20:40:32.673Z,85.47
2022-10-02T20:43:09.651Z,85.54
2022-10-02T20:45:42.704Z,85.69
2022-10-02T20:48:43.577Z,85.75
2022-10-02T20:51:16.532Z,85.89
2022-10-02T20:53:57.362Z,86.11
2022-10-02T20:56:50.610Z,86.31
2022-10-02T20:59:45.285Z,86.33
2022-10-02T21:02:49.765Z,86.19
2022-10-02T21:05:48.721Z,86.29
2022-10-02T21:08:24.962Z,86.50
2022-10-02T21:11:21.157Z,86.59
2022-10-02T21:13:50.964Z,86.69
2022-10-02T21:16:35.502Z,86.83
2022-10-02T21:19:20.006Z,87.04
2022-10-02T21:22:24.574Z,87.08
2022-10-02T21:24:54.556Z,87.21
2022-10-02T21:27:24.475Z,87.34
2022-10-02T21:30:11.328Z,87.58
2022-10-02T21:32:47.093Z,87.60
2022-10-02T21:35:29.998Z,87.62
2022-10-02T21:38:01.781Z,87.80
2022-10-02T21:40:42.240Z,87.59
2022-10-02T21:43:46.005Z,87.55
2022-10-02T21:46:22.953Z,87.65
2022-10-02T21:49:20.649Z,87.79
2022-10-02T21:52:25.959Z,88.03
2022-10-02T21:55:25.182Z,88.12
2022-10-02T21:57:57.569Z,88.07
2022-10-02T22:00:27.808Z,88.08
2022-10-02T22:03:01.178Z,87.94
2022-10-02T22:05:37.005Z,87.73
2022-10-02T22:08:45.948Z,87.76
2022-10-02T22:11:18.556Z,87.67
2022-10-02T22:13:45.401Z,87.74
2022-10-02T22:16:43.321Z,87.93
2022-10-02T22:19:13.313Z,87.92
2022-10-02T22:22:00.311Z,87.70
2022-10-02T22:24:35.680Z,87.47
2022-10-02T22:27:33.939Z,87.33
2022-10-02T22:30:00.633Z,87.36
2022-10-02T22:32:49.056Z,87.48
2022-10-02T22:35:25.940Z,87.49
2022-10-02T22:38:17.287Z,87.57
2022-10-02T22:41:05.793Z,87.62
2022-10-02T22:43:47.461Z,87.66
2022-10-02T22:46:42.107Z,87.68
2022-10-02T22:49:25.188Z,87.58
2022-10-02T22:52:11.644Z,87.87
2022-10-02T22:54:47.581Z,88.05
2022-10-02T22:57:30.403Z,87.98
2022-10-02T23:00:00.324Z,87.90
2022-10-02T23:02:49.216Z,87.96
2022-10-02T23:05:22.451Z,87.79
2022-10-02T23:07:57.183Z,87.73
2022-10-02T23:11:37.510Z,87.78
2022-10-02T23:14:15.080Z,87.95
2022-10-02T23:16:45.007Z,88.01
2022-10-02T23:19:25.577Z,87.85
2022-10-02T23:21:55.687Z,87.97
2022-10-02T23:24:45.192Z,88.11
2022-10-02T23:27:14.517Z,88.15
2022-10-02T23:29:50.986Z,88.27
2022-10-02T23:32:31.630Z,88.12
2022-10-02T23:35:13.326Z,87.95
2022-10-02T23:38:14.155Z,87.96
2022-10-02T23:41:35.319Z,88.03
2022-10-02T23:44:20.883Z,88.36
2022-10-02T23:46:50.661Z,88.55
2022-10-02T23:49:18.191Z,88.63
2022-10-02T23:51:52.710Z,88.46
2022-10-02T23:54:41.483Z,88.54
2022-10-02T23:57:24.576Z,88.62
